createdAt,value
2024-03-09T00:01:07.945Z,44.30
2024-03-09T00:03:34.433Z,43.80
2024-03-09T00:06:00.956Z,43.80
2024-03-09T00:08:27.453Z,43.90
2024-03-09T00:10:54.090Z,44.00
2024-03-09T00:13:20.543Z,44.10
2024-03-09T00:15:47.022Z,44.40
2024-03-09T00:18:13.888Z,44.50
2024-03-09T00:20:40.426Z,44.60
2024-03-09T00:23:07.853Z,44.70
2024-03-09T00:25:34.986Z,44.80
2024-03-09T00:28:01.490Z,44.80
2024-03-09T00:30:27.936Z,44.90
2024-03-09T00:32:54.533Z,45.10
2024-03-09T00:35:21.011Z,45.10
2024-03-09T00:37:47.501Z,45.20
2024-03-09T00:40:14.099Z,45.20
2024-03-09T00:42:40.609Z,45.10
2024-03-09T00:45:07.040Z,45.30
2024-03-09T00:47:33.498Z,45.30
2024-03-09T00:49:59.959Z,45.40
2024-03-09T00:52:26.515Z,45.50
2024-03-09T00:54:53.009Z,45.40
2024-03-09T00:57:19.481Z,45.50
2024-03-09T00:59:45.930Z,45.50
2024-03-09T01:02:12.467Z,45.60
2024-03-09T01:04:39.017Z,45.70
2024-03-09T01:07:05.516Z,45.70
2024-03-09T01:09:31.967Z,45.70
2024-03-09T01:11:58.489Z,45.70
2024-03-09T01:14:25.046Z,45.70
2024-03-09T01:16:51.532Z,45.90
2024-03-09T01:19:18.055Z,45.80
2024-03-09T01:21:44.525Z,45.80
2024-03-09T01:24:10.977Z,45.80
2024-03-09T01:26:37.414Z,45.80
2024-03-09T01:29:03.971Z,45.90
2024-03-09T01:31:30.497Z,46.00
2024-03-09T01:33:56.979Z,45.90
2024-03-09T01:36:23.411Z,45.90
2024-03-09T01:38:49.880Z,45.90
2024-03-09T01:41:16.376Z,46.00
2024-03-09T01:43:42.830Z,46.00
2024-03-09T01:46:09.301Z,46.00
2024-03-09T01:48:35.745Z,46.00
2024-03-09T01:51:02.222Z,46.00
2024-03-09T01:53:28.677Z,46.10
2024-03-09T01:55:55.161Z,46.00
2024-03-09T01:58:21.744Z,46.10
2024-03-09T02:00:48.308Z,46.00
2024-03-09T02:03:14.746Z,46.00
2024-03-09T02:05:41.191Z,46.10
2024-03-09T02:08:07.675Z,46.10
2024-03-09T02:10:34.239Z,46.00
2024-03-09T02:13:00.689Z,46.10
2024-03-09T02:15:27.151Z,46.10
2024-03-09T02:17:53.601Z,46.10
2024-03-09T02:20:20.125Z,46.00
2024-03-09T02:22:46.643Z,46.10
2024-03-09T02:25:13.122Z,46.10
2024-03-09T02:27:39.555Z,46.10
2024-03-09T02:30:06.042Z,46.10
2024-03-09T02:32:32.496Z,46.20
2024-03-09T02:34:59.013Z,46.10
2024-03-09T02:37:25.528Z,46.20
2024-03-09T02:39:52.041Z,46.20
2024-03-09T02:42:18.497Z,46.10
2024-03-09T02:44:44.955Z,46.10
2024-03-09T02:47:11.562Z,46.20
2024-03-09T02:49:38.282Z,46.10
2024-03-09T02:52:04.770Z,46.20
2024-03-09T02:54:31.211Z,46.20
2024-03-09T02:56:57.758Z,46.20
2024-03-09T02:59:24.271Z,46.20
2024-03-09T03:01:50.796Z,46.20
2024-03-09T03:04:17.318Z,46.20
2024-03-09T03:06:43.775Z,46.30
2024-03-09T03:09:10.239Z,46.30
2024-03-09T03:11:36.752Z,46.20
2024-03-09T03:14:03.274Z,46.30
2024-03-09T03:16:29.856Z,46.20
2024-03-09T03:18:56.395Z,46.30
2024-03-09T03:21:22.869Z,46.20
2024-03-09T03:23:49.307Z,46.30
2024-03-09T03:26:15.836Z,46.30
2024-03-09T03:28:42.443Z,46.30
2024-03-09T03:31:08.916Z,46.30
2024-03-09T03:33:35.348Z,46.30
2024-03-09T03:36:01.840Z,46.30
2024-03-09T03:38:28.269Z,46.30
2024-03-09T03:40:54.774Z,46.30
2024-03-09T03:43:21.234Z,46.40
2024-03-09T03:45:47.674Z,46.40
2024-03-09T03:48:14.137Z,46.40
2024-03-09T03:50:40.630Z,46.40
2024-03-09T03:53:07.209Z,46.40
2024-03-09T03:55:33.862Z,46.50
2024-03-09T03:58:00.381Z,46.40
2024-03-09T04:00:26.849Z,46.40
2024-03-09T04:02:53.307Z,46.40
2024-03-09T04:05:19.815Z,46.40
2024-03-09T04:07:46.289Z,46.40
2024-03-09T04:10:12.863Z,46.50
2024-03-09T04:12:39.329Z,46.40
2024-03-09T04:15:05.771Z,46.40
2024-03-09T04:17:32.230Z,46.50
2024-03-09T04:19:58.759Z,46.50
2024-03-09T04:22:25.245Z,46.50
2024-03-09T04:24:51.684Z,46.50
2024-03-09T04:27:18.141Z,46.50
2024-03-09T04:29:44.588Z,46.50
2024-03-09T04:32:11.172Z,46.60
2024-03-09T04:34:37.746Z,46.50
2024-03-09T04:37:04.269Z,46.60
2024-03-09T04:39:30.737Z,46.50
2024-03-09T04:41:57.206Z,46.50
2024-03-09T04:44:27.863Z,46.60
2024-03-09T04:46:57.329Z,46.60
2024-03-09T04:49:23.789Z,46.60
2024-03-09T04:51:50.244Z,46.50
2024-03-09T04:54:16.694Z,46.50
2024-03-09T04:56:43.159Z,46.50
2024-03-09T04:59:09.642Z,46.50
2024-03-09T05:01:36.152Z,46.50
2024-03-09T05:04:02.607Z,46.50
2024-03-09T05:06:29.068Z,46.50
2024-03-09T05:08:55.552Z,46.50
2024-03-09T05:11:22.123Z,46.60
2024-03-09T05:13:48.690Z,46.30
2024-03-09T05:16:15.184Z,46.10
2024-03-09T05:18:41.727Z,45.60
2024-03-09T05:21:08.221Z,45.30
2024-03-09T05:23:34.706Z,45.00
2024-03-09T05:26:01.185Z,44.80
2024-03-09T05:28:27.704Z,44.50
2024-03-09T05:30:54.225Z,44.40
2024-03-09T05:33:20.772Z,44.20
2024-03-09T05:35:47.253Z,44.20
2024-03-09T05:38:14.134Z,44.10
2024-03-09T05:40:40.873Z,44.00
2024-03-09T05:43:07.329Z,43.80
2024-03-09T05:45:33.807Z,43.80
2024-03-09T05:48:00.654Z,43.70
2024-03-09T05:50:27.241Z,43.50
2024-03-09T05:52:53.865Z,43.50
2024-03-09T05:55:20.488Z,43.40
2024-03-09T05:57:47.027Z,43.20
2024-03-09T06:00:13.461Z,43.10
2024-03-09T06:02:39.902Z,43.10
2024-03-09T06:05:06.393Z,43.00
2024-03-09T06:07:32.957Z,42.80
2024-03-09T06:09:59.541Z,42.80
2024-03-09T06:12:26.140Z,42.70
2024-03-09T06:14:52.606Z,42.70
2024-03-09T06:17:19.080Z,42.60
2024-03-09T06:19:45.563Z,42.50
2024-03-09T06:22:12.051Z,42.50
2024-03-09T06:24:38.494Z,42.50
2024-03-09T06:27:04.945Z,42.50
2024-03-09T06:29:31.418Z,42.40
2024-03-09T06:31:57.893Z,42.30
2024-03-09T06:34:34.521Z,42.30
2024-03-09T06:37:01.095Z,42.30
2024-03-09T06:39:27.581Z,43.90
2024-03-09T06:41:54.003Z,44.60
2024-03-09T06:44:20.724Z,44.50
2024-03-09T06:46:47.238Z,43.70
2024-03-09T06:49:13.739Z,43.10
2024-03-09T06:51:40.182Z,42.90
2024-03-09T06:54:06.640Z,42.70
2024-03-09T06:56:33.099Z,42.50
2024-03-09T06:58:59.923Z,42.30
2024-03-09T07:01:26.509Z,42.30
2024-03-09T07:03:53.084Z,42.40
2024-03-09T07:06:19.584Z,42.20
2024-03-09T07:08:46.062Z,42.00
2024-03-09T07:11:12.596Z,42.00
2024-03-09T07:13:39.321Z,41.90
2024-03-09T07:16:05.771Z,41.90
2024-03-09T07:18:32.326Z,41.80
2024-03-09T07:20:58.830Z,41.80
2024-03-09T07:23:25.324Z,41.70
2024-03-09T07:25:51.921Z,41.70
2024-03-09T07:28:18.387Z,41.80
2024-03-09T07:30:44.830Z,42.20
2024-03-09T07:33:11.317Z,42.00
2024-03-09T07:35:37.832Z,41.80
2024-03-09T07:38:04.332Z,41.50
2024-03-09T07:40:30.822Z,41.50
2024-03-09T07:42:57.350Z,41.60
2024-03-09T07:45:23.920Z,41.50
2024-03-09T07:47:50.482Z,41.80
2024-03-09T07:50:17.131Z,41.90
2024-03-09T07:52:43.671Z,42.00
2024-03-09T07:55:10.164Z,43.40
2024-03-09T07:57:36.650Z,42.90
2024-03-09T08:00:03.092Z,42.80
2024-03-09T08:02:29.573Z,42.60
2024-03-09T08:04:56.084Z,42.60
2024-03-09T08:07:22.556Z,42.60
2024-03-09T08:09:49.000Z,42.70
2024-03-09T08:12:15.482Z,42.60
2024-03-09T08:14:41.980Z,42.50
2024-03-09T08:17:08.600Z,42.50
2024-03-09T08:19:35.131Z,42.50
2024-03-09T08:22:01.648Z,42.70
2024-03-09T08:24:28.113Z,42.60
2024-03-09T08:26:54.566Z,42.30
2024-03-09T08:29:21.144Z,42.30
2024-03-09T08:31:47.646Z,41.90
2024-03-09T08:34:14.144Z,41.70
2024-03-09T08:36:40.684Z,41.10
2024-03-09T08:39:07.159Z,41.20
2024-03-09T08:41:33.634Z,40.80
2024-03-09T08:44:00.141Z,40.80
2024-03-09T08:46:26.631Z,40.70
2024-03-09T08:48:53.083Z,40.80
2024-03-09T08:51:19.535Z,40.80
2024-03-09T08:53:46.000Z,40.90
2024-03-09T08:56:12.616Z,40.80
2024-03-09T08:58:39.134Z,40.70
2024-03-09T09:01:05.717Z,40.80
2024-03-09T09:03:32.198Z,40.60
2024-03-09T09:05:58.668Z,40.70
2024-03-09T09:08:25.284Z,40.60
2024-03-09T09:10:51.905Z,40.80
2024-03-09T09:13:18.409Z,41.30
2024-03-09T09:15:44.870Z,41.20
2024-03-09T09:18:11.435Z,41.20
2024-03-09T09:20:37.927Z,41.30
2024-03-09T09:23:04.513Z,41.30
2024-03-09T09:25:32.950Z,41.20
2024-03-09T09:27:59.778Z,41.20
2024-03-09T09:30:26.254Z,41.20
2024-03-09T09:32:52.783Z,41.00
2024-03-09T09:35:19.318Z,41.10
2024-03-09T09:37:45.784Z,41.10
2024-03-09T09:40:12.277Z,40.90
2024-03-09T09:42:38.743Z,41.10
2024-03-09T09:45:05.245Z,41.20
2024-03-09T09:47:32.104Z,41.00
2024-03-09T09:49:58.848Z,41.00
2024-03-09T09:52:25.510Z,40.90
2024-03-09T09:54:52.017Z,41.10
2024-03-09T09:57:18.508Z,41.20
2024-03-09T09:59:45.319Z,41.20
2024-03-09T10:02:11.831Z,41.30
2024-03-09T10:04:38.307Z,41.40
2024-03-09T10:07:04.791Z,41.50
2024-03-09T10:09:32.486Z,41.70
2024-03-09T10:12:00.764Z,41.90
2024-03-09T10:14:27.330Z,41.90
2024-03-09T10:16:53.817Z,42.00
2024-03-09T10:19:20.358Z,42.10
2024-03-09T10:21:46.805Z,42.10
2024-03-09T10:24:13.337Z,42.10
2024-03-09T10:26:39.803Z,42.30
2024-03-09T10:29:06.418Z,42.40
2024-03-09T10:31:33.000Z,42.40
2024-03-09T10:33:59.509Z,42.50
2024-03-09T10:36:26.035Z,42.60
2024-03-09T10:38:52.571Z,42.70
2024-03-09T10:41:19.124Z,42.80
2024-03-09T10:43:45.807Z,42.80
2024-03-09T10:46:12.296Z,42.90
2024-03-09T10:48:38.822Z,42.90
2024-03-09T10:51:05.285Z,43.00
2024-03-09T10:53:31.734Z,43.20
2024-03-09T10:55:58.289Z,43.20
2024-03-09T10:58:24.769Z,43.20
2024-03-09T11:00:51.442Z,43.30
2024-03-09T11:03:19.148Z,43.50
2024-03-09T11:05:46.863Z,43.50
2024-03-09T11:08:17.676Z,43.60
2024-03-09T11:10:44.218Z,43.50
2024-03-09T11:13:10.698Z,43.60
2024-03-09T11:15:37.162Z,43.70
2024-03-09T11:18:03.682Z,43.60
2024-03-09T11:20:30.263Z,43.80
2024-03-09T11:22:56.998Z,43.80
2024-03-09T11:25:23.576Z,43.80
2024-03-09T11:27:52.002Z,43.90
2024-03-09T11:30:18.649Z,43.90
2024-03-09T11:32:45.135Z,43.90
2024-03-09T11:35:11.623Z,44.00
2024-03-09T11:37:38.148Z,44.10
2024-03-09T11:40:04.676Z,44.00
2024-03-09T11:42:31.132Z,44.00
2024-03-09T11:44:57.571Z,44.10
2024-03-09T11:47:24.173Z,43.90
2024-03-09T11:49:50.735Z,43.70
2024-03-09T11:52:17.278Z,43.60
2024-03-09T11:54:43.730Z,43.70
2024-03-09T11:57:10.165Z,43.60
2024-03-09T11:59:36.664Z,43.60
2024-03-09T12:02:03.379Z,43.50
2024-03-09T12:04:29.995Z,43.40
2024-03-09T12:06:56.456Z,43.40
2024-03-09T12:09:22.976Z,43.40
2024-03-09T12:11:49.555Z,43.30
2024-03-09T12:14:16.144Z,43.50
2024-03-09T12:16:42.682Z,43.20
2024-03-09T12:19:09.180Z,43.20
2024-03-09T12:21:35.676Z,43.20
2024-03-09T12:24:02.160Z,43.30
2024-03-09T12:26:32.066Z,43.10
2024-03-09T12:29:00.586Z,43.10
2024-03-09T12:31:27.136Z,43.20
2024-03-09T12:33:53.573Z,43.10
2024-03-09T12:36:20.058Z,43.20
2024-03-09T12:38:46.511Z,43.00
2024-03-09T12:41:13.035Z,43.10
2024-03-09T12:43:39.612Z,43.20
2024-03-09T12:46:06.143Z,43.20
2024-03-09T12:48:32.596Z,43.30
2024-03-09T12:50:59.044Z,43.40
2024-03-09T12:53:25.530Z,43.50
2024-03-09T12:55:52.060Z,43.40
2024-03-09T12:58:18.560Z,43.30
2024-03-09T13:00:45.098Z,43.30
2024-03-09T13:03:11.549Z,43.30
2024-03-09T13:05:38.017Z,43.20
2024-03-09T13:08:04.505Z,42.90
2024-03-09T13:10:31.016Z,43.00
2024-03-09T13:12:57.449Z,43.00
2024-03-09T13:15:23.911Z,42.70
2024-03-09T13:17:50.426Z,42.70
2024-03-09T13:20:17.006Z,42.10
2024-03-09T13:22:43.592Z,42.30
2024-03-09T13:25:10.077Z,42.30
2024-03-09T13:27:36.856Z,42.20
2024-03-09T13:30:03.337Z,42.00
2024-03-09T13:32:29.861Z,41.90
2024-03-09T13:34:56.382Z,41.40
2024-03-09T13:37:22.941Z,41.40
2024-03-09T13:39:49.402Z,41.10
2024-03-09T13:42:15.930Z,40.80
2024-03-09T13:44:42.418Z,40.90
2024-03-09T13:47:08.945Z,40.20
2024-03-09T13:49:35.586Z,40.50
2024-03-09T13:52:02.249Z,40.40
2024-03-09T13:54:28.743Z,40.10
2024-03-09T13:56:55.205Z,40.20
2024-03-09T13:59:21.759Z,39.40
2024-03-09T14:01:48.245Z,39.00
2024-03-09T14:04:15.797Z,39.10
2024-03-09T14:06:56.624Z,39.50
2024-03-09T14:09:29.164Z,39.50
2024-03-09T14:11:55.723Z,39.60
2024-03-09T14:14:22.328Z,39.70
2024-03-09T14:16:49.021Z,39.90
2024-03-09T14:19:15.562Z,39.60
2024-03-09T14:21:42.063Z,39.30
2024-03-09T14:24:08.594Z,39.90
2024-03-09T14:26:35.031Z,40.10
2024-03-09T14:29:01.575Z,40.00
2024-03-09T14:31:28.107Z,40.00
2024-03-09T14:33:54.588Z,39.80
2024-03-09T14:36:22.158Z,40.30
2024-03-09T14:38:48.612Z,40.50
2024-03-09T14:41:17.298Z,40.30
2024-03-09T14:43:45.626Z,40.10
2024-03-09T14:46:12.123Z,39.70
2024-03-09T14:48:38.603Z,39.80
2024-03-09T14:51:05.076Z,39.80
2024-03-09T14:53:31.538Z,40.30
2024-03-09T14:55:58.066Z,40.60
2024-03-09T14:58:24.646Z,40.70
2024-03-09T15:00:51.154Z,40.80
2024-03-09T15:03:17.612Z,40.80
2024-03-09T15:05:44.064Z,40.50
2024-03-09T15:08:10.621Z,40.80
2024-03-09T15:10:37.173Z,40.90
2024-03-09T15:13:03.657Z,40.30
2024-03-09T15:15:30.102Z,40.70
2024-03-09T15:17:56.587Z,40.90
2024-03-09T15:20:26.121Z,40.90
2024-03-09T15:22:57.181Z,40.90
2024-03-09T15:25:23.676Z,41.00
2024-03-09T15:27:50.150Z,41.10
2024-03-09T15:30:16.652Z,40.90
2024-03-09T15:32:43.133Z,40.80
2024-03-09T15:35:09.716Z,41.30
2024-03-09T15:37:36.232Z,41.30
2024-03-09T15:40:02.705Z,41.40
2024-03-09T15:42:29.268Z,41.40
2024-03-09T15:44:55.871Z,41.10
2024-03-09T15:47:22.363Z,41.20
2024-03-09T15:49:48.887Z,41.50
2024-03-09T15:52:15.404Z,41.60
2024-03-09T15:54:41.878Z,41.80
2024-03-09T15:57:08.378Z,41.70
2024-03-09T15:59:34.939Z,41.80
2024-03-09T16:02:01.652Z,41.80
2024-03-09T16:04:28.155Z,41.80
2024-03-09T16:06:54.664Z,41.70
2024-03-09T16:09:21.130Z,41.90
2024-03-09T16:11:47.698Z,42.00
2024-03-09T16:14:14.786Z,41.90
2024-03-09T16:16:41.500Z,42.00
2024-03-09T16:19:08.060Z,41.90
2024-03-09T16:21:34.580Z,42.10
2024-03-09T16:24:01.122Z,42.00
2024-03-09T16:26:27.673Z,42.00
2024-03-09T16:28:54.250Z,42.10
2024-03-09T16:31:20.810Z,42.10
2024-03-09T16:33:47.362Z,42.10
2024-03-09T16:36:13.851Z,42.10
2024-03-09T16:38:40.357Z,42.10
2024-03-09T16:41:06.966Z,41.70
2024-03-09T16:43:36.648Z,42.10
2024-03-09T16:46:04.759Z,42.20
2024-03-09T16:48:31.257Z,41.90
2024-03-09T16:50:57.797Z,42.20
2024-03-09T16:53:24.479Z,42.40
2024-03-09T16:55:51.134Z,42.60
2024-03-09T16:58:17.767Z,42.60
2024-03-09T17:00:44.246Z,42.70
2024-03-09T17:03:10.702Z,42.70
2024-03-09T17:05:37.186Z,42.80
2024-03-09T17:08:03.798Z,42.80
2024-03-09T17:10:30.321Z,43.00
2024-03-09T17:12:56.780Z,42.90
2024-03-09T17:15:23.303Z,43.00
2024-03-09T17:17:49.767Z,43.00
2024-03-09T17:20:16.318Z,43.10
2024-03-09T17:22:42.833Z,43.10
2024-03-09T17:25:11.425Z,43.10
2024-03-09T17:27:37.921Z,43.20
2024-03-09T17:30:04.378Z,43.30
2024-03-09T17:32:30.950Z,43.30
2024-03-09T17:34:57.473Z,43.50
2024-03-09T17:37:26.825Z,43.40
2024-03-09T17:39:53.362Z,43.30
2024-03-09T17:42:19.808Z,43.20
2024-03-09T17:44:46.256Z,43.30
2024-03-09T17:47:13.010Z,43.20
2024-03-09T17:49:41.344Z,43.40
2024-03-09T17:52:07.843Z,43.40
2024-03-09T17:54:34.533Z,43.30
2024-03-09T17:57:01.264Z,43.50
2024-03-09T17:59:27.771Z,43.50
2024-03-09T18:01:54.419Z,43.50
2024-03-09T18:04:20.932Z,43.50
2024-03-09T18:06:47.439Z,43.50
2024-03-09T18:09:16.119Z,43.50
2024-03-09T18:11:42.713Z,43.60
2024-03-09T18:14:09.315Z,43.90
2024-03-09T18:16:35.839Z,44.10
2024-03-09T18:19:02.361Z,44.10
2024-03-09T18:21:28.821Z,44.20
2024-03-09T18:23:55.317Z,44.20
2024-03-09T18:26:21.851Z,44.30
2024-03-09T18:28:48.390Z,44.30
2024-03-09T18:31:14.859Z,44.40
2024-03-09T18:33:41.332Z,44.40
2024-03-09T18:36:07.926Z,44.50
2024-03-09T18:38:34.499Z,44.50
2024-03-09T18:41:01.840Z,44.50
2024-03-09T18:43:29.414Z,44.50
2024-03-09T18:45:55.895Z,44.60
2024-03-09T18:48:24.844Z,44.60
2024-03-09T18:50:51.630Z,44.60
2024-03-09T18:53:18.187Z,44.70
2024-03-09T18:55:44.759Z,44.80
2024-03-09T18:58:11.335Z,44.70
2024-03-09T19:00:37.820Z,44.80
2024-03-09T19:03:04.378Z,44.80
2024-03-09T19:05:30.887Z,44.80
2024-03-09T19:07:57.600Z,44.80
2024-03-09T19:10:24.116Z,44.90
2024-03-09T19:12:50.642Z,44.90
2024-03-09T19:15:17.132Z,44.90
2024-03-09T19:17:43.625Z,44.90
2024-03-09T19:20:10.163Z,44.90
2024-03-09T19:22:36.613Z,45.00
2024-03-09T19:25:03.065Z,45.00
2024-03-09T19:27:29.521Z,44.90
2024-03-09T19:29:56.002Z,44.90
2024-03-09T19:32:22.520Z,44.90
2024-03-09T19:34:49.019Z,45.00
2024-03-09T19:37:15.489Z,45.00
2024-03-09T19:39:41.980Z,45.00
2024-03-09T19:42:08.417Z,44.90
2024-03-09T19:44:34.879Z,45.00
2024-03-09T19:47:01.362Z,45.10
2024-03-09T19:49:27.845Z,44.90
2024-03-09T19:51:54.363Z,44.90
2024-03-09T19:54:20.823Z,44.90
2024-03-09T19:56:47.287Z,44.90
2024-03-09T19:59:13.777Z,44.90
2024-03-09T20:01:40.357Z,44.90
2024-03-09T20:04:06.844Z,44.90
2024-03-09T20:06:33.301Z,45.00
2024-03-09T20:08:59.768Z,45.00
2024-03-09T20:11:26.359Z,45.00
2024-03-09T20:13:52.883Z,45.00
2024-03-09T20:16:19.328Z,45.20
2024-03-09T20:18:45.780Z,45.00
2024-03-09T20:21:12.262Z,45.10
2024-03-09T20:23:38.749Z,45.10
2024-03-09T20:26:05.342Z,45.20
2024-03-09T20:28:31.873Z,45.20
2024-03-09T20:30:58.360Z,45.30
2024-03-09T20:33:24.884Z,45.30
2024-03-09T20:35:51.423Z,45.40
2024-03-09T20:38:18.025Z,45.50
2024-03-09T20:40:44.538Z,45.50
2024-03-09T20:43:11.027Z,45.40
2024-03-09T20:45:37.545Z,45.40
2024-03-09T20:48:04.103Z,45.40
2024-03-09T20:50:30.627Z,45.40
2024-03-09T20:52:57.209Z,45.40
2024-03-09T20:55:23.696Z,45.30
2024-03-09T20:57:50.192Z,45.30
2024-03-09T21:00:16.703Z,45.30
2024-03-09T21:02:43.245Z,45.30
2024-03-09T21:05:09.827Z,45.30
2024-03-09T21:07:36.453Z,45.30
2024-03-09T21:10:02.999Z,45.30
2024-03-09T21:12:29.488Z,45.40
2024-03-09T21:14:55.949Z,45.50
2024-03-09T21:17:24.807Z,45.50
2024-03-09T21:19:51.684Z,45.50
2024-03-09T21:22:18.190Z,45.50
2024-03-09T21:24:44.673Z,45.40
2024-03-09T21:27:11.237Z,45.40
2024-03-09T21:29:37.670Z,45.40
2024-03-09T21:32:04.211Z,45.40
2024-03-09T21:34:30.802Z,45.50
2024-03-09T21:36:57.288Z,45.40
2024-03-09T21:39:23.788Z,45.50
2024-03-09T21:41:50.317Z,45.40
2024-03-09T21:44:16.782Z,45.70
2024-03-09T21:46:43.312Z,45.80
2024-03-09T21:49:09.803Z,45.80
2024-03-09T21:51:36.290Z,45.90
2024-03-09T21:54:02.749Z,46.40
2024-03-09T21:56:29.236Z,46.20
2024-03-09T21:58:55.726Z,46.10
2024-03-09T22:01:22.219Z,46.00
2024-03-09T22:03:48.671Z,45.90
2024-03-09T22:06:15.138Z,45.90
2024-03-09T22:08:41.734Z,45.90
2024-03-09T22:11:08.254Z,45.90
2024-03-09T22:13:35.002Z,46.00
2024-03-09T22:16:01.500Z,47.70
2024-03-09T22:18:27.938Z,46.90
2024-03-09T22:20:54.443Z,46.20
2024-03-09T22:23:21.063Z,45.70
2024-03-09T22:25:47.553Z,45.20
2024-03-09T22:28:14.056Z,44.80
2024-03-09T22:30:40.526Z,44.50
2024-03-09T22:33:07.111Z,44.30
2024-03-09T22:35:33.701Z,44.10
2024-03-09T22:38:00.298Z,43.80
2024-03-09T22:40:26.806Z,43.60
2024-03-09T22:42:53.275Z,43.40
2024-03-09T22:45:19.725Z,43.40
2024-03-09T22:47:46.912Z,43.30
2024-03-09T22:50:13.875Z,43.00
2024-03-09T22:52:40.392Z,43.10
2024-03-09T22:55:06.866Z,43.00
2024-03-09T22:57:33.330Z,42.80
2024-03-09T22:59:59.780Z,42.70
2024-03-09T23:02:26.319Z,42.60
2024-03-09T23:04:53.051Z,42.50
2024-03-09T23:07:19.671Z,42.60
2024-03-09T23:09:46.213Z,42.40
2024-03-09T23:12:12.859Z,42.40
2024-03-09T23:14:39.472Z,42.20
2024-03-09T23:17:06.098Z,42.10
2024-03-09T23:19:32.597Z,42.10
2024-03-09T23:21:59.168Z,42.10
2024-03-09T23:24:25.663Z,42.00
2024-03-09T23:26:52.126Z,41.90
2024-03-09T23:29:18.687Z,41.90
2024-03-09T23:31:45.318Z,42.40
2024-03-09T23:34:11.785Z,42.30
2024-03-09T23:36:38.261Z,42.20
2024-03-09T23:39:05.718Z,42.50
2024-03-09T23:41:32.238Z,42.60
2024-03-09T23:43:58.722Z,42.70
2024-03-09T23:46:25.464Z,42.80
2024-03-09T23:48:51.926Z,42.70
2024-03-09T23:51:18.377Z,42.70
2024-03-09T23:53:44.906Z,42.60
2024-03-09T23:56:11.396Z,42.60
2024-03-09T23:58:37.870Z,42.50
